Terminal Aerodrome Forecast
Issued by NWS

Home | Current Version | Previous Version | Graphics & Text | Print | Product List | Glossary On
Versions: 1 2 3 4 5 6 7 8 9 10 11 12 13 14 15
000
FTUS43 KDLH 281100
TAFBRD
TAF
KBRD 281136Z 2812/2912 33012KT P6SM VCSH BKN045 OVC060
     FM281500 34010KT P6SM VCSH OVC004
     FM281800 35009KT P6SM SCT030
     FM290000 35005KT P6SM SCT150=

USA.gov is the U.S. government's official web portal to all federal, state and local government web resources and services.